sensor_id;sensor_type;location;lat;lon;timestamp;temperature;humidity
68867;SHT30;56451;44.804;20.476;2023-02-26T09:00:04;3.78;77.85
68867;SHT30;56451;44.804;20.476;2023-02-26T09:02:37;3.81;77.59
68867;SHT30;56451;44.804;20.476;2023-02-26T09:05:14;3.90;77.62
68867;SHT30;56451;44.804;20.476;2023-02-26T09:07:47;3.94;77.52
68867;SHT30;56451;44.804;20.476;2023-02-26T09:10:15;3.94;77.31
68867;SHT30;56451;44.804;20.476;2023-02-26T09:12:44;4.04;76.95
68867;SHT30;56451;44.804;20.476;2023-02-26T09:15:14;4.04;76.68
68867;SHT30;56451;44.804;20.476;2023-02-26T09:17:49;3.93;77.09
68867;SHT30;56451;44.804;20.476;2023-02-26T09:20:20;3.97;77.54
68867;SHT30;56451;44.804;20.476;2023-02-26T09:22:51;3.93;77.06
68867;SHT30;56451;44.804;20.476;2023-02-26T09:25:21;3.86;77.49
68867;SHT30;56451;44.804;20.476;2023-02-26T09:27:59;3.79;77.90
68867;SHT30;56451;44.804;20.476;2023-02-26T09:30:33;3.78;78.01
68867;SHT30;56451;44.804;20.476;2023-02-26T09:33:06;3.75;78.45
68867;SHT30;56451;44.804;20.476;2023-02-26T09:35:38;3.75;78.34
68867;SHT30;56451;44.804;20.476;2023-02-26T09:38:10;3.75;78.54
68867;SHT30;56451;44.804;20.476;2023-02-26T09:40:49;3.79;78.55
68867;SHT30;56451;44.804;20.476;2023-02-26T09:46:25;3.97;78.32
68867;SHT30;56451;44.804;20.476;2023-02-26T09:52:03;4.07;77.45
68867;SHT30;56451;44.804;20.476;2023-02-26T09:54:43;4.11;77.24
68867;SHT30;56451;44.804;20.476;2023-02-26T09:57:36;4.06;77.61
68867;SHT30;56451;44.804;20.476;2023-02-26T10:06:14;4.00;77.95
68867;SHT30;56451;44.804;20.476;2023-02-26T10:09:36;4.07;78.17
68867;SHT30;56451;44.804;20.476;2023-02-26T10:12:10;4.10;78.06
68867;SHT30;56451;44.804;20.476;2023-02-26T10:20:05;4.16;77.59
68867;SHT30;56451;44.804;20.476;2023-02-26T10:25:32;4.27;77.84
68867;SHT30;56451;44.804;20.476;2023-02-26T10:42:31;4.81;75.92
68867;SHT30;56451;44.804;20.476;2023-02-26T10:48:37;4.81;76.06
68867;SHT30;56451;44.804;20.476;2023-02-26T10:51:16;4.81;76.24
68867;SHT30;56451;44.804;20.476;2023-02-26T10:54:02;4.71;76.02
68867;SHT30;56451;44.804;20.476;2023-02-26T10:56:34;4.67;76.64
68867;SHT30;56451;44.804;20.476;2023-02-26T10:59:05;4.68;76.98
68867;SHT30;56451;44.804;20.476;2023-02-26T11:01:37;4.72;76.85
68867;SHT30;56451;44.804;20.476;2023-02-26T11:04:23;4.76;76.92
68867;SHT30;56451;44.804;20.476;2023-02-26T11:07:02;4.86;77.09
68867;SHT30;56451;44.804;20.476;2023-02-26T11:09:35;4.99;76.57
68867;SHT30;56451;44.804;20.476;2023-02-26T11:12:12;5.15;75.49
68867;SHT30;56451;44.804;20.476;2023-02-26T11:14:39;5.23;75.18
68867;SHT30;56451;44.804;20.476;2023-02-26T11:17:31;5.37;74.58
68867;SHT30;56451;44.804;20.476;2023-02-26T11:20:01;5.47;74.10
68867;SHT30;56451;44.804;20.476;2023-02-26T11:22:32;5.54;73.58
68867;SHT30;56451;44.804;20.476;2023-02-26T11:24:59;5.59;73.38
68867;SHT30;56451;44.804;20.476;2023-02-26T11:27:34;5.64;73.02
68867;SHT30;56451;44.804;20.476;2023-02-26T11:30:21;5.69;73.01
68867;SHT30;56451;44.804;20.476;2023-02-26T11:32:52;5.71;72.55
68867;SHT30;56451;44.804;20.476;2023-02-26T11:35:21;5.74;72.39
68867;SHT30;56451;44.804;20.476;2023-02-26T11:37:51;5.81;72.15
68867;SHT30;56451;44.804;20.476;2023-02-26T11:40:31;5.86;71.91
68867;SHT30;56451;44.804;20.476;2023-02-26T11:43:02;5.88;71.77
68867;SHT30;56451;44.804;20.476;2023-02-26T11:45:29;5.89;71.68
68867;SHT30;56451;44.804;20.476;2023-02-26T11:48:08;5.91;71.74
68867;SHT30;56451;44.804;20.476;2023-02-26T11:50:48;5.98;71.37
68867;SHT30;56451;44.804;20.476;2023-02-26T11:56:13;6.05;71.58
68867;SHT30;56451;44.804;20.476;2023-02-26T11:58:42;6.03;71.23
68867;SHT30;56451;44.804;20.476;2023-02-26T12:01:15;6.02;71.12
68867;SHT30;56451;44.804;20.476;2023-02-26T12:03:47;6.06;71.13
68867;SHT30;56451;44.804;20.476;2023-02-26T12:06:23;6.06;71.05
68867;SHT30;56451;44.804;20.476;2023-02-26T12:09:00;6.06;71.20
68867;SHT30;56451;44.804;20.476;2023-02-26T12:37:27;6.12;71.41
68867;SHT30;56451;44.804;20.476;2023-02-26T12:46:07;6.13;71.44
68867;SHT30;56451;44.804;20.476;2023-02-26T12:49:49;6.16;71.62
68867;SHT30;56451;44.804;20.476;2023-02-26T13:14:42;6.16;72.42
68867;SHT30;56451;44.804;20.476;2023-02-26T13:17:42;6.12;72.87
68867;SHT30;56451;44.804;20.476;2023-02-26T13:20:18;6.17;73.08
68867;SHT30;56451;44.804;20.476;2023-02-26T13:22:50;6.19;73.15
68867;SHT30;56451;44.804;20.476;2023-02-26T13:27:54;6.15;73.01
68867;SHT30;56451;44.804;20.476;2023-02-26T13:30:38;6.05;73.41
68867;SHT30;56451;44.804;20.476;2023-02-26T13:33:13;5.94;73.81
68867;SHT30;56451;44.804;20.476;2023-02-26T13:35:41;5.98;74.19
68867;SHT30;56451;44.804;20.476;2023-02-26T13:41:04;5.96;74.25
68867;SHT30;56451;44.804;20.476;2023-02-26T13:49:25;5.98;74.67
68867;SHT30;56451;44.804;20.476;2023-02-26T13:51:56;5.98;74.98
68867;SHT30;56451;44.804;20.476;2023-02-26T13:54:34;6.12;74.91
68867;SHT30;56451;44.804;20.476;2023-02-26T13:59:45;6.30;74.71
68867;SHT30;56451;44.804;20.476;2023-02-26T14:04:58;6.27;74.45
68867;SHT30;56451;44.804;20.476;2023-02-26T14:07:47;6.17;74.76
68867;SHT30;56451;44.804;20.476;2023-02-26T14:10:23;6.05;75.45
68867;SHT30;56451;44.804;20.476;2023-02-26T14:16:26;5.85;76.62
68867;SHT30;56451;44.804;20.476;2023-02-26T14:18:51;5.82;76.76
68867;SHT30;56451;44.804;20.476;2023-02-26T14:23:59;5.89;76.81
68867;SHT30;56451;44.804;20.476;2023-02-26T14:26:34;5.94;77.00
68867;SHT30;56451;44.804;20.476;2023-02-26T14:31:53;6.02;76.64
68867;SHT30;56451;44.804;20.476;2023-02-26T14:34:30;6.03;76.62
68867;SHT30;56451;44.804;20.476;2023-02-26T14:37:00;6.06;76.80
68867;SHT30;56451;44.804;20.476;2023-02-26T14:39:29;6.16;76.66
68867;SHT30;56451;44.804;20.476;2023-02-26T14:42:00;6.22;76.37
68867;SHT30;56451;44.804;20.476;2023-02-26T14:44:31;6.23;76.33
68867;SHT30;56451;44.804;20.476;2023-02-26T14:46:58;6.34;76.08
68867;SHT30;56451;44.804;20.476;2023-02-26T14:49:35;6.25;76.26
68867;SHT30;56451;44.804;20.476;2023-02-26T15:12:14;5.68;78.66
68867;SHT30;56451;44.804;20.476;2023-02-26T15:15:02;5.72;78.80
68867;SHT30;56451;44.804;20.476;2023-02-26T15:17:46;5.79;78.34
68867;SHT30;56451;44.804;20.476;2023-02-26T15:23:29;5.96;78.02
68867;SHT30;56451;44.804;20.476;2023-02-26T15:26:04;6.02;77.72
68867;SHT30;56451;44.804;20.476;2023-02-26T15:28:41;6.02;77.42
68867;SHT30;56451;44.804;20.476;2023-02-26T15:31:13;5.92;77.72
68867;SHT30;56451;44.804;20.476;2023-02-26T15:33:47;5.91;77.83
68867;SHT30;56451;44.804;20.476;2023-02-26T15:36:19;5.81;78.00
68867;SHT30;56451;44.804;20.476;2023-02-26T15:38:56;5.74;78.42
68867;SHT30;56451;44.804;20.476;2023-02-26T15:41:26;5.68;78.54
68867;SHT30;56451;44.804;20.476;2023-02-26T15:44:07;5.69;78.57
68867;SHT30;56451;44.804;20.476;2023-02-26T15:46:41;5.58;78.93
68867;SHT30;56451;44.804;20.476;2023-02-26T15:52:07;5.51;79.24
68867;SHT30;56451;44.804;20.476;2023-02-26T15:54:49;5.59;78.97
68867;SHT30;56451;44.804;20.476;2023-02-26T15:57:29;5.61;78.94
68867;SHT30;56451;44.804;20.476;2023-02-26T16:00:07;5.54;79.10
68867;SHT30;56451;44.804;20.476;2023-02-26T16:02:42;5.58;79.24
68867;SHT30;56451;44.804;20.476;2023-02-26T16:05:17;5.62;78.90
68867;SHT30;56451;44.804;20.476;2023-02-26T16:07:48;5.58;79.24
68867;SHT30;56451;44.804;20.476;2023-02-26T16:10:39;5.62;79.17
68867;SHT30;56451;44.804;20.476;2023-02-26T16:13:15;5.68;79.11
68867;SHT30;56451;44.804;20.476;2023-02-26T16:15:46;5.81;78.67
68867;SHT30;56451;44.804;20.476;2023-02-26T16:18:22;5.84;78.34
68867;SHT30;56451;44.804;20.476;2023-02-26T16:21:00;5.88;78.14
68867;SHT30;56451;44.804;20.476;2023-02-26T16:23:45;5.89;78.06
68867;SHT30;56451;44.804;20.476;2023-02-26T16:26:26;5.94;78.12
68867;SHT30;56451;44.804;20.476;2023-02-26T16:29:00;6.01;77.88
68867;SHT30;56451;44.804;20.476;2023-02-26T16:31:33;6.05;77.54
68867;SHT30;56451;44.804;20.476;2023-02-26T16:37:26;6.06;77.26
68867;SHT30;56451;44.804;20.476;2023-02-26T16:50:54;6.01;77.75
68867;SHT30;56451;44.804;20.476;2023-02-26T16:53:37;5.95;77.97
68867;SHT30;56451;44.804;20.476;2023-02-26T16:56:27;5.98;78.11
68867;SHT30;56451;44.804;20.476;2023-02-26T16:59:36;5.95;77.96
68867;SHT30;56451;44.804;20.476;2023-02-26T17:02:15;5.77;78.66
68867;SHT30;56451;44.804;20.476;2023-02-26T17:04:51;5.75;79.03
68867;SHT30;56451;44.804;20.476;2023-02-26T17:07:32;5.72;78.87
68867;SHT30;56451;44.804;20.476;2023-02-26T17:13:16;5.62;79.16
68867;SHT30;56451;44.804;20.476;2023-02-26T17:15:47;5.58;79.44
68867;SHT30;56451;44.804;20.476;2023-02-26T17:18:17;5.59;79.72
68867;SHT30;56451;44.804;20.476;2023-02-26T17:20:46;5.52;79.36
68867;SHT30;56451;44.804;20.476;2023-02-26T17:23:16;5.36;79.71
68867;SHT30;56451;44.804;20.476;2023-02-26T17:25:50;5.29;80.18
68867;SHT30;56451;44.804;20.476;2023-02-26T17:28:34;5.33;80.61
68867;SHT30;56451;44.804;20.476;2023-02-26T17:31:04;5.29;80.46
68867;SHT30;56451;44.804;20.476;2023-02-26T17:33:36;5.26;80.46
68867;SHT30;56451;44.804;20.476;2023-02-26T17:36:05;5.22;80.74
68867;SHT30;56451;44.804;20.476;2023-02-26T17:38:37;5.19;80.94
68867;SHT30;56451;44.804;20.476;2023-02-26T17:41:05;5.17;81.05
68867;SHT30;56451;44.804;20.476;2023-02-26T17:43:37;5.10;81.17
68867;SHT30;56451;44.804;20.476;2023-02-26T17:46:11;5.10;80.94
68867;SHT30;56451;44.804;20.476;2023-02-26T17:48:40;5.06;81.00
68867;SHT30;56451;44.804;20.476;2023-02-26T17:51:11;5.00;81.25
68867;SHT30;56451;44.804;20.476;2023-02-26T17:53:39;5.03;81.32
68867;SHT30;56451;44.804;20.476;2023-02-26T17:56:13;4.96;81.39
68867;SHT30;56451;44.804;20.476;2023-02-26T17:58:41;4.92;81.86
68867;SHT30;56451;44.804;20.476;2023-02-26T18:01:10;4.90;82.02
68867;SHT30;56451;44.804;20.476;2023-02-26T18:03:38;4.89;82.04
68867;SHT30;56451;44.804;20.476;2023-02-26T18:06:12;4.85;82.27
68867;SHT30;56451;44.804;20.476;2023-02-26T18:08:43;4.89;82.23
68867;SHT30;56451;44.804;20.476;2023-02-26T18:11:16;4.83;81.43
68867;SHT30;56451;44.804;20.476;2023-02-26T18:13:44;4.86;81.71
68867;SHT30;56451;44.804;20.476;2023-02-26T18:16:21;4.88;81.32
68867;SHT30;56451;44.804;20.476;2023-02-26T18:18:50;4.90;81.47
68867;SHT30;56451;44.804;20.476;2023-02-26T18:21:19;4.92;81.45
68867;SHT30;56451;44.804;20.476;2023-02-26T18:23:49;4.99;81.37
68867;SHT30;56451;44.804;20.476;2023-02-26T18:26:21;5.05;81.01
68867;SHT30;56451;44.804;20.476;2023-02-26T18:28:54;5.03;80.96
68867;SHT30;56451;44.804;20.476;2023-02-26T18:31:26;5.05;80.63
68867;SHT30;56451;44.804;20.476;2023-02-26T18:34:02;5.01;80.01
68867;SHT30;56451;44.804;20.476;2023-02-26T18:36:34;4.96;80.00
68867;SHT30;56451;44.804;20.476;2023-02-26T18:39:05;4.95;80.56
68867;SHT30;56451;44.804;20.476;2023-02-26T18:41:37;4.95;80.60
68867;SHT30;56451;44.804;20.476;2023-02-26T18:44:08;4.88;79.50
68867;SHT30;56451;44.804;20.476;2023-02-26T18:46:37;4.79;80.09
68867;SHT30;56451;44.804;20.476;2023-02-26T18:49:17;4.85;80.26
68867;SHT30;56451;44.804;20.476;2023-02-26T18:51:49;4.83;80.18
68867;SHT30;56451;44.804;20.476;2023-02-26T18:54:18;4.79;80.05
68867;SHT30;56451;44.804;20.476;2023-02-26T18:56:45;4.72;79.87
68867;SHT30;56451;44.804;20.476;2023-02-26T18:59:15;4.69;79.98
68867;SHT30;56451;44.804;20.476;2023-02-26T19:01:46;4.61;80.34
68867;SHT30;56451;44.804;20.476;2023-02-26T19:04:16;4.52;80.40
68867;SHT30;56451;44.804;20.476;2023-02-26T19:06:43;4.37;79.90
68867;SHT30;56451;44.804;20.476;2023-02-26T19:09:12;4.31;80.14
68867;SHT30;56451;44.804;20.476;2023-02-26T19:11:39;4.27;80.36
68867;SHT30;56451;44.804;20.476;2023-02-26T19:14:08;4.14;80.79
68867;SHT30;56451;44.804;20.476;2023-02-26T19:16:37;4.07;80.93
68867;SHT30;56451;44.804;20.476;2023-02-26T19:19:09;3.97;81.24
68867;SHT30;56451;44.804;20.476;2023-02-26T19:21:38;3.99;81.71
68867;SHT30;56451;44.804;20.476;2023-02-26T19:24:09;4.00;81.54
68867;SHT30;56451;44.804;20.476;2023-02-26T19:26:41;4.03;81.42
68867;SHT30;56451;44.804;20.476;2023-02-26T19:29:17;4.11;81.33
68867;SHT30;56451;44.804;20.476;2023-02-26T19:31:46;4.04;80.56
68867;SHT30;56451;44.804;20.476;2023-02-26T19:34:16;3.99;80.94
68867;SHT30;56451;44.804;20.476;2023-02-26T19:36:46;3.90;81.12
68867;SHT30;56451;44.804;20.476;2023-02-26T19:39:17;3.90;81.48
68867;SHT30;56451;44.804;20.476;2023-02-26T19:41:49;3.94;81.59
68867;SHT30;56451;44.804;20.476;2023-02-26T19:44:21;3.96;81.40
68867;SHT30;56451;44.804;20.476;2023-02-26T19:46:51;3.87;81.23
68867;SHT30;56451;44.804;20.476;2023-02-26T19:49:19;3.87;80.92
68867;SHT30;56451;44.804;20.476;2023-02-26T19:51:47;3.76;80.77
68867;SHT30;56451;44.804;20.476;2023-02-26T19:54:17;3.73;81.03
68867;SHT30;56451;44.804;20.476;2023-02-26T19:56:45;3.75;80.98
68867;SHT30;56451;44.804;20.476;2023-02-26T19:59:16;3.71;81.19
68867;SHT30;56451;44.804;20.476;2023-02-26T20:01:48;3.69;80.89
68867;SHT30;56451;44.804;20.476;2023-02-26T20:04:18;3.69;81.09
68867;SHT30;56451;44.804;20.476;2023-02-26T20:06:49;3.76;80.96
68867;SHT30;56451;44.804;20.476;2023-02-26T20:09:19;3.78;80.79
68867;SHT30;56451;44.804;20.476;2023-02-26T20:11:50;3.68;80.63
68867;SHT30;56451;44.804;20.476;2023-02-26T20:14:18;3.59;80.77
68867;SHT30;56451;44.804;20.476;2023-02-26T20:16:51;3.62;81.25
68867;SHT30;56451;44.804;20.476;2023-02-26T20:19:22;3.63;81.21
68867;SHT30;56451;44.804;20.476;2023-02-26T20:21:50;3.71;81.32
68867;SHT30;56451;44.804;20.476;2023-02-26T20:24:20;3.69;81.14
68867;SHT30;56451;44.804;20.476;2023-02-26T20:26:48;3.78;80.78
68867;SHT30;56451;44.804;20.476;2023-02-26T20:29:17;3.81;80.38
68867;SHT30;56451;44.804;20.476;2023-02-26T20:31:49;3.72;80.37
68867;SHT30;56451;44.804;20.476;2023-02-26T20:34:21;3.78;80.40
68867;SHT30;56451;44.804;20.476;2023-02-26T20:36:51;3.75;80.00
68867;SHT30;56451;44.804;20.476;2023-02-26T20:39:24;3.66;79.88
68867;SHT30;56451;44.804;20.476;2023-02-26T20:41:54;3.65;80.34
68867;SHT30;56451;44.804;20.476;2023-02-26T20:44:26;3.66;80.51
68867;SHT30;56451;44.804;20.476;2023-02-26T20:46:57;3.72;80.76
68867;SHT30;56451;44.804;20.476;2023-02-26T20:49:30;3.82;80.69
68867;SHT30;56451;44.804;20.476;2023-02-26T20:51:56;3.89;80.11
68867;SHT30;56451;44.804;20.476;2023-02-26T20:54:25;3.85;80.13
68867;SHT30;56451;44.804;20.476;2023-02-26T20:56:53;3.90;80.15
68867;SHT30;56451;44.804;20.476;2023-02-26T20:59:25;3.92;79.83
68867;SHT30;56451;44.804;20.476;2023-02-26T21:01:55;3.92;79.37
68867;SHT30;56451;44.804;20.476;2023-02-26T21:04:23;3.83;79.97
68867;SHT30;56451;44.804;20.476;2023-02-26T21:06:53;3.86;79.90
68867;SHT30;56451;44.804;20.476;2023-02-26T21:09:26;3.89;79.47
68867;SHT30;56451;44.804;20.476;2023-02-26T21:11:57;3.96;79.73
68867;SHT30;56451;44.804;20.476;2023-02-26T21:14:28;4.03;79.25
68867;SHT30;56451;44.804;20.476;2023-02-26T21:16:55;4.07;79.10
68867;SHT30;56451;44.804;20.476;2023-02-26T21:19:26;4.11;78.30
68867;SHT30;56451;44.804;20.476;2023-02-26T21:21:59;4.13;78.61
68867;SHT30;56451;44.804;20.476;2023-02-26T21:24:29;4.11;78.58
68867;SHT30;56451;44.804;20.476;2023-02-26T21:26:56;4.17;78.77
68867;SHT30;56451;44.804;20.476;2023-02-26T21:29:27;4.23;78.23
68867;SHT30;56451;44.804;20.476;2023-02-26T21:31:59;4.13;77.95
68867;SHT30;56451;44.804;20.476;2023-02-26T21:34:32;3.93;78.10
68867;SHT30;56451;44.804;20.476;2023-02-26T21:37:06;3.86;78.33
68867;SHT30;56451;44.804;20.476;2023-02-26T21:39:41;3.79;78.40
68867;SHT30;56451;44.804;20.476;2023-02-26T21:42:11;3.76;78.55
68867;SHT30;56451;44.804;20.476;2023-02-26T21:44:39;3.72;78.85
68867;SHT30;56451;44.804;20.476;2023-02-26T21:47:08;3.65;79.05
68867;SHT30;56451;44.804;20.476;2023-02-26T21:49:46;3.65;79.17
68867;SHT30;56451;44.804;20.476;2023-02-26T21:52:13;3.73;79.04
68867;SHT30;56451;44.804;20.476;2023-02-26T21:54:44;3.78;78.94
68867;SHT30;56451;44.804;20.476;2023-02-26T21:57:14;3.85;78.52
68867;SHT30;56451;44.804;20.476;2023-02-26T21:59:45;3.87;78.46
68867;SHT30;56451;44.804;20.476;2023-02-26T22:02:15;3.92;78.28
68867;SHT30;56451;44.804;20.476;2023-02-26T22:04:46;4.00;78.05
68867;SHT30;56451;44.804;20.476;2023-02-26T22:07:17;4.09;77.69
68867;SHT30;56451;44.804;20.476;2023-02-26T22:09:44;4.09;77.28
68867;SHT30;56451;44.804;20.476;2023-02-26T22:12:18;4.13;77.27
68867;SHT30;56451;44.804;20.476;2023-02-26T22:14:47;4.11;77.29
68867;SHT30;56451;44.804;20.476;2023-02-26T22:17:15;4.09;76.83
68867;SHT30;56451;44.804;20.476;2023-02-26T22:19:44;4.09;76.97
68867;SHT30;56451;44.804;20.476;2023-02-26T22:22:15;4.11;76.65
68867;SHT30;56451;44.804;20.476;2023-02-26T22:24:46;4.09;76.70
68867;SHT30;56451;44.804;20.476;2023-02-26T22:27:18;4.11;77.14
68867;SHT30;56451;44.804;20.476;2023-02-26T22:29:48;4.18;77.21
68867;SHT30;56451;44.804;20.476;2023-02-26T22:32:17;4.31;76.54
68867;SHT30;56451;44.804;20.476;2023-02-26T22:34:45;4.38;76.55
68867;SHT30;56451;44.804;20.476;2023-02-26T22:37:21;4.52;76.20
68867;SHT30;56451;44.804;20.476;2023-02-26T22:39:52;4.59;75.70
68867;SHT30;56451;44.804;20.476;2023-02-26T22:42:23;4.62;75.14
68867;SHT30;56451;44.804;20.476;2023-02-26T22:44:56;4.69;75.20
68867;SHT30;56451;44.804;20.476;2023-02-26T22:47:26;4.72;74.84
68867;SHT30;56451;44.804;20.476;2023-02-26T22:49:56;4.76;74.90
68867;SHT30;56451;44.804;20.476;2023-02-26T22:52:26;4.81;74.33
68867;SHT30;56451;44.804;20.476;2023-02-26T22:54:57;4.81;74.01
68867;SHT30;56451;44.804;20.476;2023-02-26T22:57:28;4.82;73.65
68867;SHT30;56451;44.804;20.476;2023-02-26T22:59:59;4.81;74.10
68867;SHT30;56451;44.804;20.476;2023-02-26T23:02:27;4.82;74.33
68867;SHT30;56451;44.804;20.476;2023-02-26T23:04:59;4.83;74.14
68867;SHT30;56451;44.804;20.476;2023-02-26T23:07:28;4.90;74.22
68867;SHT30;56451;44.804;20.476;2023-02-26T23:10:00;4.95;73.93
68867;SHT30;56451;44.804;20.476;2023-02-26T23:12:31;5.01;73.58
68867;SHT30;56451;44.804;20.476;2023-02-26T23:15:00;5.03;73.23
68867;SHT30;56451;44.804;20.476;2023-02-26T23:17:30;5.00;73.55
68867;SHT30;56451;44.804;20.476;2023-02-26T23:19:58;5.06;73.54
68867;SHT30;56451;44.804;20.476;2023-02-26T23:22:29;5.03;73.31
68867;SHT30;56451;44.804;20.476;2023-02-26T23:24:59;5.03;73.16
68867;SHT30;56451;44.804;20.476;2023-02-26T23:27:27;5.08;73.27
68867;SHT30;56451;44.804;20.476;2023-02-26T23:29:58;5.01;72.76
68867;SHT30;56451;44.804;20.476;2023-02-26T23:32:26;5.03;73.28
68867;SHT30;56451;44.804;20.476;2023-02-26T23:34:56;5.08;73.26
68867;SHT30;56451;44.804;20.476;2023-02-26T23:37:28;5.05;73.16
68867;SHT30;56451;44.804;20.476;2023-02-26T23:39:56;5.08;73.17
68867;SHT30;56451;44.804;20.476;2023-02-26T23:42:25;5.03;72.96
68867;SHT30;56451;44.804;20.476;2023-02-26T23:44:56;4.99;72.76
68867;SHT30;56451;44.804;20.476;2023-02-26T23:47:25;4.92;73.19
68867;SHT30;56451;44.804;20.476;2023-02-26T23:49:56;4.93;73.48
68867;SHT30;56451;44.804;20.476;2023-02-26T23:52:24;4.92;73.30
68867;SHT30;56451;44.804;20.476;2023-02-26T23:54:54;4.93;73.01
68867;SHT30;56451;44.804;20.476;2023-02-26T23:57:24;4.82;73.26
68867;SHT30;56451;44.804;20.476;2023-02-26T23:59:51;4.76;73.61
